createdAt,value
2023-02-20T00:01:06.177Z,22.30
2023-02-20T00:03:33.899Z,22.40
2023-02-20T00:06:01.737Z,22.30
2023-02-20T00:08:29.399Z,22.30
2023-02-20T00:10:57.058Z,22.30
2023-02-20T00:13:24.736Z,22.30
2023-02-20T00:15:52.458Z,22.30
2023-02-20T00:18:20.216Z,22.30
2023-02-20T00:20:48.038Z,22.40
2023-02-20T00:23:15.785Z,22.30
2023-02-20T00:25:43.580Z,22.30
2023-02-20T00:28:11.317Z,22.40
2023-02-20T00:30:39.930Z,22.40
2023-02-20T00:33:07.649Z,22.40
2023-02-20T00:35:35.315Z,22.40
2023-02-20T00:38:03.018Z,22.40
2023-02-20T00:40:30.684Z,22.40
2023-02-20T00:42:58.341Z,22.40
2023-02-20T00:45:29.321Z,22.40
2023-02-20T00:47:56.976Z,22.40
2023-02-20T00:50:25.363Z,22.40
2023-02-20T00:52:53.053Z,22.40
2023-02-20T00:55:20.813Z,22.30
2023-02-20T00:57:48.630Z,22.40
2023-02-20T01:00:28.688Z,22.40
2023-02-20T01:02:57.256Z,22.40
2023-02-20T01:05:25.218Z,22.40
2023-02-20T01:07:54.516Z,22.40
2023-02-20T01:10:22.321Z,22.30
2023-02-20T01:12:50.023Z,22.40
2023-02-20T01:15:17.779Z,22.40
2023-02-20T01:17:46.383Z,22.40
2023-02-20T01:20:14.178Z,22.40
2023-02-20T01:22:41.971Z,22.30
2023-02-20T01:25:11.424Z,22.40
2023-02-20T01:27:39.186Z,22.40
2023-02-20T01:30:08.674Z,22.40
2023-02-20T01:32:39.972Z,22.40
2023-02-20T01:35:09.161Z,22.40
2023-02-20T01:37:37.216Z,22.40
2023-02-20T01:40:06.043Z,22.40
2023-02-20T01:42:35.209Z,22.30
2023-02-20T01:45:21.982Z,22.40
2023-02-20T01:47:52.408Z,22.40
2023-02-20T01:50:25.383Z,22.30
2023-02-20T01:52:57.036Z,22.30
2023-02-20T01:55:29.330Z,22.30
2023-02-20T01:58:20.453Z,22.40
2023-02-20T02:00:48.239Z,22.40
2023-02-20T02:03:23.335Z,22.30
2023-02-20T02:05:58.200Z,22.30
2023-02-20T02:08:27.422Z,22.40
2023-02-20T02:11:11.449Z,22.40
2023-02-20T02:13:39.687Z,22.30
2023-02-20T02:16:15.641Z,22.40
2023-02-20T02:18:52.326Z,22.30
2023-02-20T02:21:39.915Z,22.30
2023-02-20T02:24:49.609Z,22.30
2023-02-20T02:27:36.223Z,22.40
2023-02-20T02:30:15.014Z,22.30
2023-02-20T02:32:45.525Z,22.30
2023-02-20T02:35:41.091Z,22.30
2023-02-20T02:38:25.806Z,22.30
2023-02-20T02:41:08.150Z,22.30
2023-02-20T02:43:57.450Z,22.30
2023-02-20T02:46:42.735Z,22.30
2023-02-20T02:49:32.893Z,22.30
2023-02-20T02:52:01.644Z,22.30
2023-02-20T02:54:30.040Z,22.30
2023-02-20T02:57:26.242Z,22.30
2023-02-20T03:00:10.692Z,22.30
2023-02-20T03:02:59.089Z,22.30
2023-02-20T03:05:40.603Z,22.30
2023-02-20T03:08:31.044Z,22.30
2023-02-20T03:11:05.137Z,22.30
2023-02-20T03:13:57.990Z,22.30
2023-02-20T03:16:32.659Z,22.30
2023-02-20T03:19:02.918Z,22.30
2023-02-20T03:21:34.977Z,22.30
2023-02-20T03:24:05.672Z,22.30
2023-02-20T03:26:36.210Z,22.30
2023-02-20T03:29:16.507Z,22.30
2023-02-20T03:31:46.460Z,22.30
2023-02-20T03:34:39.579Z,22.30
2023-02-20T03:37:35.315Z,22.30
2023-02-20T03:40:27.574Z,22.30
2023-02-20T03:43:23.393Z,22.30
2023-02-20T03:45:56.790Z,22.30
2023-02-20T03:48:33.672Z,22.30
2023-02-20T03:51:13.922Z,22.30
2023-02-20T03:53:57.426Z,22.30
2023-02-20T03:56:42.391Z,22.30
2023-02-20T03:59:16.693Z,22.30
2023-02-20T04:01:48.675Z,22.30
2023-02-20T04:04:21.966Z,22.30
2023-02-20T04:06:52.428Z,22.30
2023-02-20T04:09:29.107Z,22.30
2023-02-20T04:12:15.389Z,22.30
2023-02-20T04:14:46.452Z,22.30
2023-02-20T04:17:19.781Z,22.30
2023-02-20T04:19:47.620Z,22.30
2023-02-20T04:22:21.846Z,22.30
2023-02-20T04:25:03.435Z,22.30
2023-02-20T04:27:32.941Z,22.20
2023-02-20T04:30:02.545Z,22.20
2023-02-20T04:32:31.326Z,22.20
2023-02-20T04:35:00.149Z,22.20
2023-02-20T04:37:28.606Z,22.20
2023-02-20T04:39:58.696Z,22.20
2023-02-20T04:42:28.045Z,22.20
2023-02-20T04:44:57.482Z,22.20
2023-02-20T04:47:25.881Z,22.20
2023-02-20T04:49:55.000Z,22.20
2023-02-20T04:52:25.642Z,22.20
2023-02-20T04:54:56.040Z,22.20
2023-02-20T04:57:24.359Z,22.20
2023-02-20T04:59:53.722Z,22.20
2023-02-20T05:02:21.920Z,22.20
2023-02-20T05:04:50.224Z,22.20
2023-02-20T05:07:18.843Z,22.20
2023-02-20T05:09:47.089Z,22.20
2023-02-20T05:12:15.323Z,22.30
2023-02-20T05:14:43.697Z,22.40
2023-02-20T05:17:12.049Z,22.50
2023-02-20T05:19:40.204Z,22.60
2023-02-20T05:22:23.250Z,22.60
2023-02-20T05:24:52.302Z,22.70
2023-02-20T05:27:22.846Z,22.80
2023-02-20T05:29:54.043Z,22.80
2023-02-20T05:32:24.853Z,22.90
2023-02-20T05:34:53.723Z,22.90
2023-02-20T05:37:23.570Z,23.00
2023-02-20T05:39:52.684Z,23.00
2023-02-20T05:42:23.111Z,23.10
2023-02-20T05:44:51.485Z,23.10
2023-02-20T05:47:19.738Z,23.20
2023-02-20T05:49:48.295Z,23.30
2023-02-20T05:52:16.607Z,23.30
2023-02-20T05:54:48.373Z,23.30
2023-02-20T05:57:16.770Z,23.30
2023-02-20T05:59:44.842Z,23.30
2023-02-20T06:02:13.082Z,23.40
2023-02-20T06:04:41.859Z,23.50
2023-02-20T06:07:13.144Z,23.50
2023-02-20T06:09:45.738Z,23.50
2023-02-20T06:12:15.008Z,23.60
2023-02-20T06:14:43.302Z,23.60
2023-02-20T06:17:11.563Z,23.60
2023-02-20T06:19:39.723Z,23.70
2023-02-20T06:22:07.963Z,23.40
2023-02-20T06:24:36.104Z,23.10
2023-02-20T06:27:04.694Z,22.70
2023-02-20T06:29:33.093Z,22.50
2023-02-20T06:32:01.459Z,22.60
2023-02-20T06:34:33.615Z,22.50
2023-02-20T06:37:03.326Z,22.50
2023-02-20T06:39:33.576Z,22.30
2023-02-20T06:42:02.347Z,22.30
2023-02-20T06:44:31.342Z,22.40
2023-02-20T06:47:00.672Z,22.60
2023-02-20T06:49:28.988Z,22.80
2023-02-20T06:56:32.425Z,23.10
2023-02-20T06:59:02.670Z,23.30
2023-02-20T07:05:56.911Z,23.40
2023-02-20T07:08:24.937Z,23.60
2023-02-20T07:10:55.864Z,23.60
2023-02-20T07:13:24.424Z,23.70
2023-02-20T07:15:53.225Z,23.80
2023-02-20T07:18:25.013Z,23.80
2023-02-20T07:20:55.252Z,23.90
2023-02-20T07:23:24.424Z,24.00
2023-02-20T07:25:53.153Z,24.00
2023-02-20T07:28:21.868Z,24.00
2023-02-20T07:30:50.454Z,24.10
2023-02-20T07:33:19.805Z,24.10
2023-02-20T07:35:48.269Z,24.10
2023-02-20T07:38:17.346Z,24.20
2023-02-20T07:40:45.820Z,24.20
2023-02-20T07:43:14.262Z,24.30
2023-02-20T07:45:43.677Z,24.30
2023-02-20T07:48:11.973Z,24.30
2023-02-20T07:50:40.585Z,24.30
2023-02-20T07:53:10.024Z,24.40
2023-02-20T07:55:38.450Z,24.30
2023-02-20T07:58:06.851Z,24.40
2023-02-20T08:00:35.382Z,24.50
2023-02-20T08:03:04.102Z,24.50
2023-02-20T08:05:40.221Z,24.50
2023-02-20T08:08:15.781Z,24.50
2023-02-20T08:10:44.102Z,24.60
2023-02-20T08:13:12.425Z,24.70
2023-02-20T08:15:42.228Z,24.70
2023-02-20T08:18:22.982Z,24.80
2023-02-20T08:20:53.220Z,24.80
2023-02-20T08:23:24.304Z,24.90
2023-02-20T08:25:52.769Z,24.90
2023-02-20T08:28:21.463Z,24.90
2023-02-20T08:30:49.736Z,25.00
2023-02-20T08:33:19.116Z,25.00
2023-02-20T08:35:48.928Z,25.00
2023-02-20T08:38:28.605Z,25.00
2023-02-20T08:40:57.736Z,25.10
2023-02-20T08:43:28.245Z,25.10
2023-02-20T08:45:57.151Z,25.20
2023-02-20T08:48:25.621Z,25.20
2023-02-20T08:50:54.667Z,25.20
2023-02-20T08:53:24.103Z,25.30
2023-02-20T08:55:52.578Z,25.30
2023-02-20T08:58:23.297Z,25.30
2023-02-20T09:00:52.567Z,25.30
2023-02-20T09:03:20.979Z,25.30
2023-02-20T09:05:49.663Z,25.40
2023-02-20T09:08:18.019Z,25.30
2023-02-20T09:15:22.980Z,25.40
2023-02-20T09:17:52.294Z,25.40
2023-02-20T09:20:23.155Z,25.40
2023-02-20T09:22:51.886Z,25.30
2023-02-20T09:25:20.587Z,25.30
2023-02-20T09:27:49.064Z,25.20
2023-02-20T09:30:21.430Z,25.20
2023-02-20T09:32:50.820Z,25.10
2023-02-20T09:35:22.901Z,25.10
2023-02-20T09:37:51.443Z,25.00
2023-02-20T09:40:27.472Z,25.00
2023-02-20T09:43:02.071Z,25.00
2023-02-20T09:50:10.809Z,24.90
2023-02-20T09:52:41.229Z,24.90
2023-02-20T09:55:15.543Z,24.90
2023-02-20T09:57:46.661Z,24.90
2023-02-20T10:00:34.450Z,24.90
2023-02-20T10:03:33.386Z,25.00
2023-02-20T10:06:05.281Z,25.00
2023-02-20T10:08:33.783Z,25.20
2023-02-20T10:11:06.744Z,25.30
2023-02-20T10:14:14.538Z,25.30
2023-02-20T10:16:52.298Z,25.30
2023-02-20T10:19:33.942Z,25.50
2023-02-20T10:22:05.461Z,25.50
2023-02-20T10:24:56.544Z,25.50
2023-02-20T10:27:36.938Z,25.40
2023-02-20T10:30:06.897Z,25.40
2023-02-20T10:32:59.626Z,25.30
2023-02-20T10:35:47.866Z,25.20
2023-02-20T10:38:21.467Z,25.20
2023-02-20T10:40:57.148Z,25.10
2023-02-20T10:43:48.107Z,25.10
2023-02-20T10:46:23.624Z,25.10
2023-02-20T10:48:55.891Z,25.00
2023-02-20T10:51:35.585Z,25.00
2023-02-20T10:54:30.428Z,24.90
2023-02-20T10:57:06.982Z,24.90
2023-02-20T11:00:05.384Z,24.90
2023-02-20T11:02:38.049Z,24.80
2023-02-20T11:05:18.049Z,24.80
2023-02-20T11:07:46.340Z,24.90
2023-02-20T11:14:51.096Z,25.00
2023-02-20T11:17:27.222Z,25.10
2023-02-20T11:24:41.007Z,25.20
2023-02-20T11:27:38.455Z,25.20
2023-02-20T11:30:32.834Z,25.30
2023-02-20T11:33:15.575Z,25.30
2023-02-20T11:35:50.912Z,25.40
2023-02-20T11:38:21.911Z,25.30
2023-02-20T11:41:03.625Z,25.30
2023-02-20T11:43:43.636Z,25.30
2023-02-20T11:46:24.743Z,25.20
2023-02-20T11:49:10.824Z,25.30
2023-02-20T11:51:42.351Z,25.20
2023-02-20T11:54:14.134Z,25.20
2023-02-20T11:56:54.148Z,25.10
2023-02-20T11:59:32.548Z,25.20
2023-02-20T12:02:22.445Z,25.10
2023-02-20T12:05:14.791Z,25.10
2023-02-20T12:11:54.691Z,25.20
2023-02-20T12:14:22.977Z,25.10
2023-02-20T12:16:51.386Z,25.10
2023-02-20T12:19:46.185Z,25.20
2023-02-20T12:22:27.285Z,25.10
2023-02-20T12:25:23.822Z,25.10
2023-02-20T12:28:08.444Z,25.20
2023-02-20T12:31:12.387Z,25.20
